Terminal Aerodrome Forecast
Issued by NWS

Home | Current Version | Previous Version | Text Only | Print | Product List | Glossary On
Versions: 1 2 3 4 5 6 7 8 9 10 11 12 13
000
FTUS41 KCAR 292351
TAFPQI
TAF
KPQI 292351Z 3000/3024 21004KT P6SM BKN060
     FM300600 22006KT P6SM BKN020
     FM300900 23006KT 6SM -RA BKN010
     FM301100 23005KT 6SM -RA SCT007 OVC010
     FM301600 27007KT P6SM SCT020 BKN045
     FM302100 25005KT P6SM SCT100
      AMD LTD TO CLD VIS AND WIND=

USA.gov is the U.S. government's official web portal to all federal, state and local government web resources and services.